createdAt,value
2023-03-03T00:03:04.579Z,2.65
2023-03-03T00:08:05.556Z,2.75
2023-03-03T00:13:16.326Z,2.50
2023-03-03T00:18:34.759Z,2.49
2023-03-03T00:23:41.777Z,2.44
2023-03-03T00:28:46.559Z,2.56
2023-03-03T00:33:56.647Z,2.39
2023-03-03T00:39:17.561Z,2.35
2023-03-03T00:44:40.552Z,2.24
2023-03-03T00:49:42.337Z,2.27
2023-03-03T00:54:43.352Z,2.21
2023-03-03T00:59:44.206Z,2.19
2023-03-03T01:04:50.258Z,2.36
2023-03-03T01:09:51.073Z,2.36
2023-03-03T01:14:54.049Z,2.20
2023-03-03T01:19:54.800Z,2.14
2023-03-03T01:24:56.756Z,2.01
2023-03-03T01:29:58.835Z,1.93
2023-03-03T01:34:59.722Z,1.96
2023-03-03T01:40:01.242Z,1.93
2023-03-03T01:45:22.390Z,1.94
2023-03-03T01:50:41.314Z,1.91
2023-03-03T01:55:44.433Z,1.81
2023-03-03T02:00:50.008Z,1.72
2023-03-03T02:05:56.965Z,1.69
2023-03-03T02:10:57.850Z,1.72
2023-03-03T02:16:00.164Z,1.69
2023-03-03T02:21:23.261Z,1.74
2023-03-03T02:26:26.676Z,1.60
2023-03-03T02:31:31.120Z,1.49
2023-03-03T02:36:34.946Z,1.48
2023-03-03T02:41:46.228Z,1.55
2023-03-03T02:46:49.784Z,1.46
2023-03-03T02:51:51.217Z,1.56
2023-03-03T02:56:52.067Z,1.49
2023-03-03T03:01:55.195Z,1.45
2023-03-03T03:06:56.584Z,1.25
2023-03-03T03:12:01.596Z,1.22
2023-03-03T03:17:03.982Z,1.21
2023-03-03T03:22:04.773Z,1.16
2023-03-03T03:27:08.037Z,1.10
2023-03-03T03:32:09.138Z,1.12
2023-03-03T03:37:10.072Z,0.91
2023-03-03T03:42:12.611Z,0.94
2023-03-03T03:47:13.643Z,0.83
2023-03-03T03:52:14.738Z,0.79
2023-03-03T03:57:15.833Z,0.82
2023-03-03T04:02:18.559Z,0.73
2023-03-03T04:07:19.814Z,0.76
2023-03-03T04:12:20.746Z,0.60
2023-03-03T04:17:24.139Z,0.65
2023-03-03T04:22:25.627Z,0.57
2023-03-03T04:27:26.528Z,0.47
2023-03-03T04:32:27.811Z,0.40
2023-03-03T04:37:29.049Z,0.26
2023-03-03T04:42:30.552Z,0.27
2023-03-03T04:47:31.973Z,0.21
2023-03-03T04:52:33.230Z,0.18
2023-03-03T04:57:34.309Z,0.12
2023-03-03T05:02:35.556Z,0.23
2023-03-03T05:07:36.632Z,0.22
2023-03-03T05:12:37.353Z,0.14
2023-03-03T05:17:38.143Z,0.17
2023-03-03T05:22:38.874Z,0.05
2023-03-03T05:27:39.835Z,0.14
2023-03-03T05:32:40.600Z,0.16
2023-03-03T05:37:46.329Z,0.07
2023-03-03T05:42:47.205Z,0.09
2023-03-03T05:47:48.113Z,0.06
2023-03-03T05:52:50.658Z,0.11
2023-03-03T05:57:51.491Z,0.07
2023-03-03T06:02:52.393Z,0.05
2023-03-03T06:07:53.333Z,-0.07
2023-03-03T06:12:54.413Z,-0.01
2023-03-03T06:17:55.223Z,-0.09
2023-03-03T06:22:55.993Z,-0.11
2023-03-03T06:27:57.257Z,-0.07
2023-03-03T06:32:58.226Z,0.06
2023-03-03T06:37:59.121Z,0.11
2023-03-03T06:43:02.456Z,0.23
2023-03-03T06:48:03.512Z,0.32
2023-03-03T06:53:13.307Z,0.39
2023-03-03T06:58:17.036Z,0.53
2023-03-03T07:03:22.343Z,0.65
2023-03-03T07:08:24.218Z,0.63
2023-03-03T07:13:29.115Z,0.65
2023-03-03T07:21:17.883Z,0.87
2023-03-03T07:26:29.907Z,1.01
2023-03-03T07:31:35.203Z,1.29
2023-03-03T07:36:37.012Z,1.41
2023-03-03T07:41:37.950Z,1.49
2023-03-03T07:46:44.105Z,1.51
2023-03-03T07:51:44.856Z,1.47
2023-03-03T07:56:46.658Z,1.55
2023-03-03T08:01:50.888Z,1.59
2023-03-03T08:06:54.727Z,1.58
2023-03-03T08:12:12.835Z,1.71
2023-03-03T08:17:36.162Z,1.82
2023-03-03T08:22:37.015Z,1.86
2023-03-03T08:27:37.782Z,1.98
2023-03-03T08:32:38.702Z,2.12
2023-03-03T08:37:39.597Z,2.18
2023-03-03T08:42:40.477Z,2.30
2023-03-03T08:47:42.470Z,2.03
2023-03-03T08:52:44.701Z,2.09
2023-03-03T08:57:45.530Z,2.36
2023-03-03T09:02:46.975Z,2.27
2023-03-03T09:07:50.562Z,2.39
2023-03-03T09:12:51.399Z,2.62
2023-03-03T09:17:52.627Z,2.96
2023-03-03T09:22:53.817Z,3.19
2023-03-03T09:27:54.818Z,3.09
2023-03-03T09:32:57.379Z,3.17
2023-03-03T09:37:58.142Z,3.28
2023-03-03T09:43:09.317Z,3.15
2023-03-03T09:49:18.821Z,3.52
2023-03-03T10:01:28.267Z,3.96
2023-03-03T10:06:53.948Z,4.58
2023-03-03T10:12:12.693Z,4.49
2023-03-03T10:19:55.145Z,5.06
2023-03-03T10:25:41.547Z,5.11
2023-03-03T10:32:40.478Z,5.69
2023-03-03T10:39:36.414Z,6.09
2023-03-03T10:45:10.789Z,6.25
2023-03-03T10:50:31.046Z,5.81
2023-03-03T10:57:44.366Z,5.31
2023-03-03T11:03:27.070Z,5.00
2023-03-03T11:08:40.842Z,5.75
2023-03-03T11:13:53.936Z,5.89
2023-03-03T11:19:58.929Z,6.00
2023-03-03T11:28:30.552Z,6.14
2023-03-03T11:34:00.907Z,5.70
2023-03-03T11:39:05.504Z,5.93
2023-03-03T11:44:28.429Z,5.63
2023-03-03T11:51:04.540Z,6.01
2023-03-03T11:56:49.251Z,6.38
2023-03-03T12:01:59.712Z,6.92
2023-03-03T12:07:19.458Z,6.43
2023-03-03T12:12:32.546Z,6.32
2023-03-03T12:18:14.646Z,6.49
2023-03-03T12:23:49.517Z,7.09
2023-03-03T12:29:02.198Z,7.78
2023-03-03T12:34:26.303Z,7.85
2023-03-03T12:42:47.956Z,7.68
2023-03-03T12:47:53.104Z,7.83
2023-03-03T12:53:10.959Z,8.89
2023-03-03T12:58:44.214Z,9.24
2023-03-03T13:05:40.106Z,9.88
2023-03-03T13:12:29.174Z,10.34
2023-03-03T13:20:43.921Z,9.12
2023-03-03T13:25:57.662Z,10.00
2023-03-03T13:31:07.928Z,9.60
2023-03-03T13:36:11.186Z,9.89
2023-03-03T13:41:31.441Z,9.68
2023-03-03T13:46:40.636Z,10.00
2023-03-03T13:51:59.775Z,10.34
2023-03-03T13:58:44.566Z,10.17
2023-03-03T14:05:35.481Z,10.60
2023-03-03T14:10:53.773Z,9.87
2023-03-03T14:16:10.777Z,10.03
2023-03-03T14:21:35.239Z,10.19
2023-03-03T14:26:50.656Z,9.87
2023-03-03T14:31:52.012Z,9.65
2023-03-03T14:37:00.110Z,9.66
2023-03-03T14:42:11.365Z,9.53
2023-03-03T14:47:26.903Z,9.44
2023-03-03T14:52:33.270Z,9.04
2023-03-03T14:57:47.906Z,9.36
2023-03-03T15:03:30.951Z,9.13
2023-03-03T15:08:38.309Z,8.84
2023-03-03T15:13:40.028Z,8.50
2023-03-03T15:24:05.569Z,7.70
2023-03-03T15:29:31.285Z,7.53
2023-03-03T15:36:21.721Z,7.21
2023-03-03T15:41:43.610Z,7.31
2023-03-03T15:47:27.929Z,7.16
2023-03-03T15:52:47.861Z,7.01
2023-03-03T15:58:30.005Z,6.77
2023-03-03T16:03:37.289Z,6.57
2023-03-03T16:10:15.504Z,6.54
2023-03-03T16:17:00.998Z,6.40
2023-03-03T16:23:50.521Z,6.03
2023-03-03T16:29:46.722Z,5.65
2023-03-03T16:35:15.710Z,5.25
2023-03-03T16:40:25.007Z,5.02
2023-03-03T16:45:32.931Z,4.87
2023-03-03T16:53:31.145Z,4.85
2023-03-03T16:58:57.361Z,4.36
2023-03-03T17:08:12.183Z,3.92
2023-03-03T17:14:54.953Z,3.89
2023-03-03T17:21:03.719Z,3.33
2023-03-03T17:31:50.044Z,3.16
2023-03-03T17:37:07.964Z,2.93
2023-03-03T17:42:25.147Z,2.79
2023-03-03T17:52:42.992Z,2.51
2023-03-03T17:59:22.161Z,2.15
2023-03-03T18:05:12.000Z,1.81
2023-03-03T18:10:47.947Z,1.71
2023-03-03T18:19:05.844Z,1.52
2023-03-03T18:24:35.943Z,1.43
2023-03-03T18:29:36.978Z,1.32
2023-03-03T18:34:40.066Z,1.20
2023-03-03T18:39:49.169Z,1.21
2023-03-03T18:44:49.910Z,1.14
2023-03-03T18:50:03.118Z,0.95
2023-03-03T18:55:25.228Z,0.94
2023-03-03T19:00:30.044Z,0.83
2023-03-03T19:05:46.876Z,0.85
2023-03-03T19:11:29.062Z,0.77
2023-03-03T19:16:30.311Z,0.80
2023-03-03T19:21:36.070Z,0.48
2023-03-03T19:26:57.999Z,0.46
2023-03-03T19:32:38.203Z,0.36
2023-03-03T19:38:18.619Z,0.40
2023-03-03T19:43:56.212Z,0.39
2023-03-03T19:49:36.641Z,0.47
2023-03-03T19:58:06.777Z,0.43
2023-03-03T20:03:41.479Z,0.33
2023-03-03T20:16:40.112Z,0.17
2023-03-03T20:23:22.545Z,0.02
2023-03-03T20:30:10.556Z,0.09
2023-03-03T20:35:30.906Z,-0.12
2023-03-03T20:40:43.405Z,-0.19
2023-03-03T20:46:03.477Z,-0.21
2023-03-03T20:52:06.242Z,-0.29
2023-03-03T20:57:22.543Z,-0.38
2023-03-03T21:05:08.802Z,-0.42
2023-03-03T21:10:23.179Z,-0.41
2023-03-03T21:15:34.824Z,-0.41
2023-03-03T21:20:36.018Z,-0.44
2023-03-03T21:25:45.348Z,-0.32
2023-03-03T21:37:42.102Z,-0.52
2023-03-03T21:42:44.663Z,-0.54
2023-03-03T21:47:46.406Z,-0.60
2023-03-03T21:52:47.859Z,-0.51
2023-03-03T21:57:48.773Z,-0.50
2023-03-03T22:02:49.526Z,-0.56
2023-03-03T22:07:50.267Z,-0.58
2023-03-03T22:12:51.573Z,-0.60
2023-03-03T22:17:52.421Z,-0.57
2023-03-03T22:22:53.364Z,-0.63
2023-03-03T22:27:54.326Z,-0.54
2023-03-03T22:32:55.184Z,-0.56
2023-03-03T22:37:58.981Z,-0.65
2023-03-03T22:42:59.918Z,-0.76
2023-03-03T22:48:00.987Z,-0.81
2023-03-03T22:53:01.699Z,-0.75
2023-03-03T22:58:09.329Z,-0.75
2023-03-03T23:03:11.090Z,-0.80
2023-03-03T23:08:14.258Z,-0.81
2023-03-03T23:13:15.607Z,-0.73
2023-03-03T23:18:16.577Z,-0.86
2023-03-03T23:23:17.355Z,-0.90
2023-03-03T23:28:18.502Z,-0.78
2023-03-03T23:33:19.627Z,-0.71
2023-03-03T23:38:20.531Z,-0.70
2023-03-03T23:43:21.330Z,-0.72
2023-03-03T23:48:22.248Z,-0.90
2023-03-03T23:53:22.968Z,-0.81
2023-03-03T23:58:23.779Z,-0.75
